createdAt,value
2022-10-19T00:00:15.883Z,6.32
2022-10-19T00:02:43.341Z,6.30
2022-10-19T00:05:10.764Z,8.77
2022-10-19T00:07:38.275Z,6.40
2022-10-19T00:10:06.345Z,5.05
2022-10-19T00:12:35.296Z,7.72
2022-10-19T00:15:02.743Z,5.80
2022-10-19T00:17:30.309Z,5.80
2022-10-19T00:19:58.262Z,8.15
2022-10-19T00:22:25.653Z,6.78
2022-10-19T00:24:53.276Z,9.07
2022-10-19T00:27:20.621Z,5.07
2022-10-19T00:29:49.616Z,7.75
2022-10-19T00:32:17.281Z,7.10
2022-10-19T00:34:44.718Z,6.30
2022-10-19T00:37:12.151Z,5.68
2022-10-19T00:39:39.617Z,3.60
2022-10-19T00:42:09.493Z,5.55
2022-10-19T00:45:04.433Z,8.50
2022-10-19T00:47:31.912Z,7.82
2022-10-19T00:49:59.353Z,7.82
2022-10-19T00:52:26.781Z,5.07
2022-10-19T00:54:54.644Z,6.30
2022-10-19T00:57:22.189Z,7.78
2022-10-19T00:59:49.620Z,3.85
2022-10-19T01:02:18.511Z,3.90
2022-10-19T01:04:48.204Z,7.82
2022-10-19T01:07:15.763Z,8.05
2022-10-19T01:09:43.146Z,8.25
2022-10-19T01:12:16.590Z,5.30
2022-10-19T01:14:50.316Z,8.70
2022-10-19T01:17:22.648Z,4.85
2022-10-19T01:20:21.186Z,7.63
2022-10-19T01:23:01.619Z,5.07
2022-10-19T01:25:35.923Z,4.70
2022-10-19T01:28:09.650Z,5.38
2022-10-19T01:30:47.568Z,7.07
2022-10-19T01:33:27.745Z,5.45
2022-10-19T01:36:02.461Z,6.47
2022-10-19T01:38:32.650Z,6.22
2022-10-19T01:41:04.547Z,4.95
2022-10-19T01:43:36.959Z,5.43
2022-10-19T01:46:09.270Z,5.53
2022-10-19T01:48:37.716Z,5.10
2022-10-19T01:51:06.403Z,8.25
2022-10-19T01:53:36.352Z,4.97
2022-10-19T01:56:04.201Z,7.05
2022-10-19T01:58:33.256Z,9.02
2022-10-19T02:01:02.619Z,4.53
2022-10-19T02:03:31.693Z,5.95
2022-10-19T02:05:59.219Z,8.65
2022-10-19T02:08:29.366Z,6.03
2022-10-19T02:10:56.914Z,4.35
2022-10-19T02:13:24.440Z,6.35
2022-10-19T02:15:53.432Z,4.65
2022-10-19T02:18:23.973Z,7.63
2022-10-19T02:20:52.909Z,6.78
2022-10-19T02:23:22.548Z,5.55
2022-10-19T02:25:50.078Z,8.23
2022-10-19T02:28:17.597Z,8.93
2022-10-19T02:30:45.097Z,6.75
2022-10-19T02:33:12.799Z,10.63
2022-10-19T02:35:40.378Z,6.15
2022-10-19T02:38:10.644Z,3.80
2022-10-19T02:40:41.495Z,8.35
2022-10-19T02:43:11.618Z,5.70
2022-10-19T02:45:41.484Z,6.95
2022-10-19T02:48:11.581Z,4.97
2022-10-19T02:50:39.088Z,6.40
2022-10-19T02:53:08.145Z,7.75
2022-10-19T02:55:35.845Z,5.35
2022-10-19T02:58:03.397Z,6.43
2022-10-19T03:00:30.804Z,5.20
2022-10-19T03:02:58.367Z,6.80
2022-10-19T03:05:25.935Z,9.27
2022-10-19T03:07:53.762Z,8.00
2022-10-19T03:10:22.978Z,8.82
2022-10-19T03:12:50.640Z,3.50
2022-10-19T03:15:18.592Z,8.55
2022-10-19T03:17:46.151Z,7.47
2022-10-19T03:20:13.802Z,10.60
2022-10-19T03:22:41.293Z,6.53
2022-10-19T03:25:09.627Z,5.50
2022-10-19T03:27:38.628Z,4.75
2022-10-19T03:30:07.660Z,7.75
2022-10-19T03:32:35.193Z,8.00
2022-10-19T03:35:02.740Z,7.88
2022-10-19T03:37:30.295Z,6.80
2022-10-19T03:39:57.952Z,4.50
2022-10-19T03:42:25.440Z,9.15
2022-10-19T03:44:54.431Z,8.45
2022-10-19T03:47:21.998Z,7.88
2022-10-19T03:49:49.533Z,8.90
2022-10-19T03:52:17.331Z,6.18
2022-10-19T03:54:44.949Z,4.88
2022-10-19T03:57:12.685Z,5.03
2022-10-19T03:59:40.352Z,7.22
2022-10-19T04:02:09.365Z,7.53
2022-10-19T04:04:36.979Z,6.45
2022-10-19T04:07:04.508Z,7.10
2022-10-19T04:09:32.083Z,4.55
2022-10-19T04:11:59.588Z,5.78
2022-10-19T04:14:33.215Z,4.20
2022-10-19T04:17:09.408Z,4.00
2022-10-19T04:19:37.007Z,4.97
2022-10-19T04:22:04.576Z,6.60
2022-10-19T04:24:32.303Z,5.18
2022-10-19T04:26:59.890Z,5.88
2022-10-19T04:29:29.768Z,6.93
2022-10-19T04:31:58.310Z,5.05
2022-10-19T04:34:27.290Z,5.43
2022-10-19T04:36:54.803Z,7.80
2022-10-19T04:39:22.356Z,4.88
2022-10-19T04:41:49.826Z,5.50
2022-10-19T04:44:17.424Z,6.57
2022-10-19T04:46:45.000Z,4.45
2022-10-19T04:49:15.200Z,4.22
2022-10-19T04:51:47.318Z,5.45
2022-10-19T04:54:14.884Z,4.70
2022-10-19T04:56:42.420Z,9.75
2022-10-19T04:59:10.431Z,5.50
2022-10-19T05:01:38.047Z,9.95
2022-10-19T05:04:05.629Z,6.22
2022-10-19T05:06:33.234Z,8.02
2022-10-19T05:09:02.312Z,3.85
2022-10-19T05:11:29.811Z,6.30
2022-10-19T05:13:57.389Z,6.55
2022-10-19T05:16:24.943Z,8.23
2022-10-19T05:18:53.396Z,6.63
2022-10-19T05:21:21.142Z,7.13
2022-10-19T05:23:51.292Z,7.35
2022-10-19T05:26:21.728Z,7.53
2022-10-19T05:28:49.404Z,7.85
2022-10-19T05:31:18.097Z,7.05
2022-10-19T05:33:45.657Z,11.13
2022-10-19T05:36:15.382Z,11.30
2022-10-19T05:38:43.016Z,9.45
2022-10-19T05:41:10.528Z,9.00
2022-10-19T05:43:39.798Z,7.55
2022-10-19T05:46:09.128Z,8.55
2022-10-19T05:48:37.642Z,7.32
2022-10-19T05:51:05.719Z,11.75
2022-10-19T05:53:33.422Z,12.68
2022-10-19T05:56:01.053Z,10.40
2022-10-19T05:58:28.593Z,9.60
2022-10-19T06:00:59.135Z,13.20
2022-10-19T06:03:26.828Z,5.65
2022-10-19T06:05:54.473Z,6.70
2022-10-19T06:08:22.884Z,7.93
2022-10-19T06:10:50.550Z,10.38
2022-10-19T06:13:18.540Z,8.27
2022-10-19T06:15:49.902Z,8.77
2022-10-19T06:18:18.890Z,7.60
2022-10-19T06:20:46.485Z,10.35
2022-10-19T06:23:14.096Z,8.82
2022-10-19T06:25:41.572Z,10.88
2022-10-19T06:28:09.166Z,6.38
2022-10-19T06:30:39.415Z,8.90
2022-10-19T06:33:07.028Z,6.55
2022-10-19T06:35:36.157Z,8.48
2022-10-19T06:38:03.727Z,8.00
2022-10-19T06:40:31.858Z,7.25
2022-10-19T06:42:59.598Z,6.57
2022-10-19T06:45:27.265Z,10.18
2022-10-19T06:47:54.758Z,11.45
2022-10-19T06:50:22.216Z,5.95
2022-10-19T06:52:51.271Z,7.53
2022-10-19T06:55:18.976Z,5.78
2022-10-19T06:57:46.746Z,6.35
2022-10-19T07:00:15.150Z,7.53
2022-10-19T07:02:42.886Z,10.95
2022-10-19T07:05:10.514Z,10.60
2022-10-19T07:07:38.243Z,9.95
2022-10-19T07:10:08.289Z,8.77
2022-10-19T07:12:35.872Z,6.53
2022-10-19T07:15:03.942Z,7.25
2022-10-19T07:17:31.863Z,8.07
2022-10-19T07:19:59.608Z,9.73
2022-10-19T07:22:28.232Z,8.13
2022-10-19T07:24:56.299Z,8.38
2022-10-19T07:27:25.368Z,6.60
2022-10-19T07:29:53.077Z,7.65
2022-10-19T07:32:20.678Z,7.93
2022-10-19T07:34:48.166Z,8.77
2022-10-19T07:37:15.751Z,6.65
2022-10-19T07:39:43.317Z,4.95
2022-10-19T07:42:10.949Z,6.68
2022-10-19T07:44:40.010Z,9.60
2022-10-19T07:47:07.579Z,5.95
2022-10-19T07:49:35.159Z,5.63
2022-10-19T07:52:02.712Z,8.48
2022-10-19T07:54:30.418Z,9.18
2022-10-19T07:56:57.976Z,9.38
2022-10-19T07:59:25.626Z,9.10
2022-10-19T08:01:54.760Z,7.57
2022-10-19T08:07:09.936Z,7.35
2022-10-19T08:09:52.943Z,7.22
2022-10-19T08:12:21.602Z,14.63
2022-10-19T08:14:49.159Z,6.20
2022-10-19T08:17:18.139Z,9.80
2022-10-19T08:19:45.701Z,8.60
2022-10-19T08:22:13.274Z,7.22
2022-10-19T08:24:40.764Z,8.63
2022-10-19T08:27:08.425Z,8.52
2022-10-19T08:29:36.045Z,10.55
2022-10-19T08:32:03.598Z,8.18
2022-10-19T08:34:32.555Z,8.30
2022-10-19T08:37:06.707Z,7.68
2022-10-19T08:39:42.786Z,7.78
2022-10-19T08:42:13.499Z,5.18
2022-10-19T08:45:02.058Z,7.00
2022-10-19T08:47:58.624Z,8.98
2022-10-19T08:50:29.846Z,7.38
2022-10-19T08:53:00.933Z,7.63
2022-10-19T08:55:34.304Z,5.82
2022-10-19T08:58:06.650Z,9.15
2022-10-19T09:03:23.043Z,10.43
2022-10-19T09:06:09.111Z,7.82
2022-10-19T09:08:36.983Z,7.70
2022-10-19T09:11:04.983Z,7.53
2022-10-19T09:13:47.025Z,7.18
2022-10-19T09:16:23.906Z,4.60
2022-10-19T09:18:51.618Z,7.20
2022-10-19T09:21:26.019Z,6.50
2022-10-19T09:24:06.805Z,7.22
2022-10-19T09:26:36.372Z,7.73
2022-10-19T09:29:06.397Z,6.70
2022-10-19T09:31:39.569Z,7.28
2022-10-19T09:34:12.900Z,9.20
2022-10-19T09:36:50.603Z,5.25
2022-10-19T09:39:18.758Z,6.53
2022-10-19T09:41:46.435Z,5.88
2022-10-19T09:44:13.874Z,5.38
2022-10-19T09:46:47.583Z,5.00
2022-10-19T09:49:15.104Z,7.78
2022-10-19T09:51:49.377Z,5.43
2022-10-19T09:54:31.464Z,6.00
2022-10-19T09:56:59.510Z,4.75
2022-10-19T09:59:30.168Z,6.90
2022-10-19T10:02:12.089Z,4.65
2022-10-19T10:04:39.628Z,6.55
2022-10-19T10:07:11.768Z,8.68
2022-10-19T10:09:39.336Z,4.72
2022-10-19T10:12:06.727Z,3.22
2022-10-19T10:14:35.189Z,5.60
2022-10-19T10:17:04.168Z,7.15
2022-10-19T10:19:33.188Z,4.78
2022-10-19T10:22:00.802Z,7.47
2022-10-19T10:24:30.576Z,5.53
2022-10-19T10:26:59.005Z,9.18
2022-10-19T10:29:27.739Z,3.80
2022-10-19T10:31:56.830Z,5.97
2022-10-19T10:34:45.527Z,8.80
2022-10-19T10:37:18.243Z,6.70
2022-10-19T10:39:47.327Z,6.70
2022-10-19T10:42:17.108Z,8.55
2022-10-19T10:44:46.098Z,5.50
2022-10-19T10:47:14.530Z,8.07
2022-10-19T10:49:42.097Z,10.57
2022-10-19T10:52:11.297Z,4.85
2022-10-19T10:54:38.870Z,3.97
2022-10-19T10:57:14.533Z,3.92
2022-10-19T10:59:49.661Z,4.07
2022-10-19T11:02:36.956Z,10.82
2022-10-19T11:05:08.555Z,5.03
2022-10-19T11:07:37.608Z,6.78
2022-10-19T11:10:08.022Z,6.38
2022-10-19T11:12:39.163Z,6.40
2022-10-19T11:15:15.750Z,9.68
2022-10-19T11:17:51.786Z,7.50
2022-10-19T11:20:19.369Z,5.40
2022-10-19T11:22:49.371Z,5.90
2022-10-19T11:25:26.691Z,9.68
2022-10-19T11:28:03.297Z,12.50
2022-10-19T11:30:30.883Z,7.70
2022-10-19T11:33:02.110Z,9.18
2022-10-19T11:35:38.237Z,6.15
2022-10-19T11:38:20.183Z,11.38
2022-10-19T11:41:13.226Z,12.52
2022-10-19T11:43:45.295Z,11.30
2022-10-19T11:46:16.212Z,9.15
2022-10-19T11:49:10.938Z,10.40
2022-10-19T11:51:41.187Z,14.85
2022-10-19T11:54:23.611Z,10.93
2022-10-19T11:57:11.371Z,12.90
2022-10-19T11:59:49.624Z,20.85
2022-10-19T12:02:53.032Z,14.30
2022-10-19T12:05:21.994Z,16.27
2022-10-19T12:07:56.400Z,19.98
2022-10-19T12:10:28.546Z,21.13
2022-10-19T12:12:57.008Z,18.45
2022-10-19T12:15:28.600Z,17.52
2022-10-19T12:17:58.056Z,21.02
2022-10-19T12:20:29.401Z,19.40
2022-10-19T12:22:57.829Z,15.93
2022-10-19T12:25:25.384Z,24.13
2022-10-19T12:27:52.986Z,21.35
2022-10-19T12:30:21.741Z,20.63
2022-10-19T12:32:59.880Z,18.25
2022-10-19T12:35:49.875Z,20.02
2022-10-19T12:38:21.394Z,23.30
2022-10-19T12:40:51.961Z,14.98
2022-10-19T12:43:23.803Z,21.27
2022-10-19T12:45:54.616Z,26.27
2022-10-19T12:48:24.258Z,26.88
2022-10-19T12:51:11.877Z,23.70
2022-10-19T12:53:40.774Z,23.15
2022-10-19T12:56:10.822Z,24.23
2022-10-19T12:58:47.570Z,26.88
2022-10-19T13:01:19.255Z,28.17
2022-10-19T13:03:48.710Z,20.67
2022-10-19T13:06:18.640Z,29.33
2022-10-19T13:08:49.156Z,24.45
2022-10-19T13:11:16.765Z,21.90
2022-10-19T13:14:01.352Z,23.65
2022-10-19T13:16:59.224Z,25.42
2022-10-19T13:19:28.427Z,23.02
2022-10-19T13:22:25.582Z,22.17
2022-10-19T13:25:31.875Z,26.95
2022-10-19T13:28:02.911Z,21.83
2022-10-19T13:31:04.970Z,28.05
2022-10-19T13:33:46.880Z,18.92
2022-10-19T13:36:15.935Z,19.17
2022-10-19T13:38:43.739Z,23.88
2022-10-19T13:41:16.822Z,20.17
2022-10-19T13:44:12.253Z,23.57
2022-10-19T13:47:09.467Z,14.93
2022-10-19T13:49:57.466Z,21.75
2022-10-19T13:52:54.882Z,19.27
2022-10-19T13:55:33.416Z,23.20
2022-10-19T13:58:19.990Z,27.67
2022-10-19T14:01:03.184Z,18.88
2022-10-19T14:03:38.277Z,19.27
2022-10-19T14:06:23.422Z,19.48
2022-10-19T14:09:12.429Z,16.38
2022-10-19T14:11:40.616Z,17.40
2022-10-19T14:14:16.270Z,19.38
2022-10-19T14:16:52.105Z,14.27
2022-10-19T14:19:27.862Z,17.63
2022-10-19T14:21:56.891Z,16.52
2022-10-19T14:24:34.506Z,22.20
2022-10-19T14:27:02.766Z,16.50
2022-10-19T14:29:30.710Z,14.50
2022-10-19T14:31:59.454Z,15.55
2022-10-19T14:34:27.064Z,19.23
2022-10-19T14:36:54.707Z,18.90
2022-10-19T14:39:28.824Z,13.75
2022-10-19T14:42:00.453Z,16.33
2022-10-19T14:44:39.731Z,16.92
2022-10-19T14:47:19.496Z,17.65
2022-10-19T14:49:47.163Z,18.63
2022-10-19T14:52:17.735Z,17.58
2022-10-19T14:54:46.369Z,21.10
2022-10-19T14:57:16.914Z,18.40
2022-10-19T14:59:45.762Z,19.15
2022-10-19T15:02:17.648Z,23.90
2022-10-19T15:04:45.081Z,20.63
2022-10-19T15:07:17.680Z,18.38
2022-10-19T15:09:50.018Z,17.23
2022-10-19T15:12:19.672Z,17.45
2022-10-19T15:14:47.310Z,16.95
2022-10-19T15:17:28.876Z,20.88
2022-10-19T15:19:56.895Z,17.60
2022-10-19T15:22:29.997Z,24.55
2022-10-19T15:25:00.170Z,19.27
2022-10-19T15:27:33.368Z,19.05
2022-10-19T15:30:01.790Z,13.93
2022-10-19T15:32:31.699Z,17.00
2022-10-19T15:34:59.941Z,22.17
2022-10-19T15:37:27.573Z,17.17
2022-10-19T15:39:55.042Z,21.63
2022-10-19T15:42:23.552Z,20.58
2022-10-19T15:44:52.341Z,21.23
2022-10-19T15:47:22.382Z,18.60
2022-10-19T15:49:58.239Z,15.55
2022-10-19T15:52:26.773Z,22.33
2022-10-19T15:54:54.974Z,21.90
2022-10-19T15:57:25.165Z,24.92
2022-10-19T15:59:54.181Z,24.80
2022-10-19T16:02:21.866Z,22.83
2022-10-19T16:04:49.217Z,21.25
2022-10-19T16:07:17.981Z,24.02
2022-10-19T16:09:45.338Z,17.42
2022-10-19T16:12:12.781Z,28.35
2022-10-19T16:14:40.133Z,17.42
2022-10-19T16:17:09.838Z,19.20
2022-10-19T16:19:37.550Z,15.90
2022-10-19T16:22:05.140Z,23.58
2022-10-19T16:24:32.454Z,20.05
2022-10-19T16:26:59.845Z,19.25
2022-10-19T16:29:28.980Z,13.18
2022-10-19T16:31:56.701Z,19.42
2022-10-19T16:34:25.790Z,22.77
2022-10-19T16:36:53.334Z,15.45
2022-10-19T16:39:20.909Z,14.65
2022-10-19T16:41:48.561Z,21.08
2022-10-19T16:44:16.135Z,20.35
2022-10-19T16:46:43.691Z,19.25
2022-10-19T16:49:11.298Z,17.05
2022-10-19T16:51:40.617Z,24.65
2022-10-19T16:54:09.080Z,19.20
2022-10-19T16:56:36.904Z,19.38
2022-10-19T16:59:05.682Z,18.80
2022-10-19T17:01:34.015Z,15.13
2022-10-19T17:04:01.661Z,23.15
2022-10-19T17:06:29.362Z,20.42
2022-10-19T17:11:46.658Z,16.65
2022-10-19T17:14:14.152Z,20.45
2022-10-19T17:16:41.758Z,16.85
2022-10-19T17:19:10.017Z,14.93
2022-10-19T17:21:38.174Z,16.42
2022-10-19T17:24:07.776Z,13.30
2022-10-19T17:26:36.513Z,16.88
2022-10-19T17:29:04.445Z,19.75
2022-10-19T17:31:32.086Z,19.35
2022-10-19T17:33:59.669Z,16.70
2022-10-19T17:36:28.582Z,17.70
2022-10-19T17:38:56.337Z,15.38
2022-10-19T17:41:25.617Z,16.92
2022-10-19T17:43:53.175Z,18.35
2022-10-19T17:46:22.498Z,15.85
2022-10-19T17:48:50.172Z,22.65
2022-10-19T17:51:19.058Z,13.73
2022-10-19T17:53:47.785Z,20.30
2022-10-19T17:56:17.747Z,14.38
2022-10-19T17:58:46.774Z,18.23
2022-10-19T18:01:14.712Z,16.58
2022-10-19T18:03:42.308Z,16.58
2022-10-19T18:06:11.933Z,19.13
2022-10-19T18:08:40.681Z,17.67
2022-10-19T18:11:09.373Z,19.67
2022-10-19T18:16:12.315Z,15.80
2022-10-19T18:18:40.950Z,22.35
2022-10-19T18:21:09.803Z,18.58
2022-10-19T18:23:37.479Z,16.40
2022-10-19T18:26:06.120Z,20.45
2022-10-19T18:28:33.714Z,18.63
2022-10-19T18:31:06.300Z,17.27
2022-10-19T18:33:35.470Z,19.00
2022-10-19T18:36:02.968Z,15.13
2022-10-19T18:38:30.603Z,20.85
2022-10-19T18:41:01.966Z,15.85
2022-10-19T18:43:29.592Z,15.43
2022-10-19T18:45:58.407Z,19.20
2022-10-19T18:48:26.632Z,19.80
2022-10-19T18:50:55.708Z,22.83
2022-10-19T18:53:23.362Z,18.45
2022-10-19T18:55:57.585Z,15.48
2022-10-19T18:58:25.305Z,22.48
2022-10-19T19:01:03.369Z,18.23
2022-10-19T19:03:30.791Z,18.13
2022-10-19T19:06:31.068Z,20.13
2022-10-19T19:09:11.278Z,17.85
2022-10-19T19:11:45.954Z,19.15
2022-10-19T19:14:28.340Z,19.63
2022-10-19T19:17:03.946Z,17.27
2022-10-19T19:19:56.368Z,17.73
2022-10-19T19:22:25.356Z,21.65
2022-10-19T19:24:52.887Z,17.00
2022-10-19T19:27:31.719Z,21.88
2022-10-19T19:30:02.561Z,16.77
2022-10-19T19:35:33.292Z,21.30
2022-10-19T19:38:02.265Z,18.50
2022-10-19T19:40:29.812Z,18.45
2022-10-19T19:42:57.399Z,16.08
2022-10-19T19:45:25.091Z,20.20
2022-10-19T19:47:52.902Z,19.90
2022-10-19T19:50:20.536Z,20.05
2022-10-19T19:52:48.086Z,15.25
2022-10-19T19:55:17.270Z,20.85
2022-10-19T19:57:44.905Z,24.70
2022-10-19T20:00:13.847Z,16.17
2022-10-19T20:02:41.449Z,18.77
2022-10-19T20:05:09.258Z,16.10
2022-10-19T20:07:37.097Z,16.40
2022-10-19T20:10:05.330Z,15.70
2022-10-19T20:12:34.355Z,17.08
2022-10-19T20:15:02.027Z,14.95
2022-10-19T20:17:29.763Z,17.77
2022-10-19T20:19:57.293Z,23.90
2022-10-19T20:22:24.779Z,19.05
2022-10-19T20:24:52.343Z,19.08
2022-10-19T20:27:19.914Z,21.20
2022-10-19T20:29:48.934Z,15.68
2022-10-19T20:32:16.587Z,17.45
2022-10-19T20:34:44.213Z,16.90
2022-10-19T20:37:11.882Z,19.20
2022-10-19T20:39:39.493Z,12.38
2022-10-19T20:42:07.208Z,20.83
2022-10-19T20:44:34.788Z,14.40
2022-10-19T20:47:03.934Z,21.10
2022-10-19T20:49:31.545Z,19.65
2022-10-19T20:51:59.160Z,18.02
2022-10-19T20:54:26.764Z,17.25
2022-10-19T20:56:54.326Z,20.77
2022-10-19T20:59:22.765Z,21.98
2022-10-19T21:01:51.188Z,22.20
2022-10-19T21:04:20.387Z,16.52
2022-10-19T21:06:50.046Z,17.05
2022-10-19T21:09:18.485Z,16.83
2022-10-19T21:11:46.219Z,14.88
2022-10-19T21:14:15.046Z,23.35
2022-10-19T21:16:42.676Z,25.00
2022-10-19T21:19:12.002Z,19.77
2022-10-19T21:21:42.559Z,19.90
2022-10-19T21:24:11.720Z,20.42
2022-10-19T21:26:39.485Z,17.23
2022-10-19T21:29:07.205Z,22.52
2022-10-19T21:31:34.754Z,21.80
2022-10-19T21:34:04.799Z,15.55
2022-10-19T21:36:32.384Z,23.00
2022-10-19T21:39:01.424Z,14.30
2022-10-19T21:41:29.040Z,21.50
2022-10-19T21:43:56.557Z,17.63
2022-10-19T21:46:24.208Z,16.90
2022-10-19T21:48:51.822Z,18.40
2022-10-19T21:51:24.858Z,15.63
2022-10-19T21:53:52.358Z,23.27
2022-10-19T21:56:21.415Z,21.85
2022-10-19T21:58:49.646Z,18.88
2022-10-19T22:01:17.804Z,21.23
2022-10-19T22:03:45.433Z,23.48
2022-10-19T22:06:13.039Z,24.27
2022-10-19T22:08:40.639Z,18.67
2022-10-19T22:11:09.560Z,18.70
2022-10-19T22:13:38.699Z,19.63
2022-10-19T22:16:06.684Z,19.13
2022-10-19T22:18:34.293Z,17.90
2022-10-19T22:21:03.600Z,18.30
2022-10-19T22:23:31.172Z,12.43
2022-10-19T22:25:58.729Z,19.23
2022-10-19T22:28:26.380Z,18.83
2022-10-19T22:30:55.780Z,14.50
2022-10-19T22:33:23.489Z,15.52
2022-10-19T22:35:54.925Z,20.20
2022-10-19T22:38:22.579Z,20.17
2022-10-19T22:41:27.113Z,18.75
2022-10-19T22:43:54.631Z,16.55
2022-10-19T22:46:23.655Z,16.05
2022-10-19T22:48:51.139Z,15.07
2022-10-19T22:51:18.775Z,16.92
2022-10-19T22:53:46.331Z,13.00
2022-10-19T22:56:13.910Z,18.00
2022-10-19T22:58:41.455Z,13.10
2022-10-19T23:01:10.625Z,19.80
2022-10-19T23:03:39.767Z,17.42
2022-10-19T23:06:07.360Z,16.60
2022-10-19T23:08:34.945Z,17.52
2022-10-19T23:11:02.502Z,10.85
2022-10-19T23:13:30.082Z,11.02
2022-10-19T23:15:57.588Z,16.73
2022-10-19T23:18:25.159Z,17.95
2022-10-19T23:20:57.392Z,13.75
2022-10-19T23:23:25.054Z,18.33
2022-10-19T23:26:00.630Z,13.50
2022-10-19T23:28:28.319Z,16.48
2022-10-19T23:30:55.876Z,16.73
2022-10-19T23:33:23.662Z,14.15
2022-10-19T23:35:51.262Z,13.35
2022-10-19T23:38:26.057Z,18.80
2022-10-19T23:40:55.345Z,15.02
2022-10-19T23:43:23.156Z,16.70
2022-10-19T23:45:52.240Z,17.55
2022-10-19T23:48:20.611Z,18.25
2022-10-19T23:50:55.675Z,15.13
2022-10-19T23:53:24.958Z,16.27
2022-10-19T23:55:52.896Z,17.70
2022-10-19T23:58:20.481Z,12.85
